createdAt,value
2017-08-08T00:03:54.061Z,96917.09
2017-08-08T00:08:40.700Z,96912.79
2017-08-08T00:13:27.318Z,96906.30
2017-08-08T00:18:13.962Z,96903.19
2017-08-08T00:23:00.988Z,96903.00
2017-08-08T00:27:47.595Z,96904.13
2017-08-08T00:32:34.337Z,96890.95
2017-08-08T00:37:21.001Z,96881.75
2017-08-08T00:42:08.441Z,96870.81
2017-08-08T00:46:55.825Z,96867.67
2017-08-08T00:51:42.963Z,96863.61
2017-08-08T00:56:29.675Z,96856.56
2017-08-08T01:01:16.316Z,96852.46
2017-08-08T01:06:02.917Z,96842.84
2017-08-08T01:10:49.560Z,96833.91
2017-08-08T01:15:36.212Z,96831.27
2017-08-08T01:20:23.698Z,96830.56
2017-08-08T01:25:10.294Z,96829.97
2017-08-08T01:29:56.901Z,96826.72
2017-08-08T01:34:43.521Z,96824.22
2017-08-08T01:39:30.153Z,96824.17
2017-08-08T01:44:16.907Z,96814.70
2017-08-08T01:49:10.593Z,96805.19
2017-08-08T01:53:57.468Z,96797.02
2017-08-08T01:58:44.801Z,96794.30
2017-08-08T02:03:32.223Z,96796.56
2017-08-08T02:08:19.573Z,96792.77
2017-08-08T02:13:06.955Z,96790.50
2017-08-08T02:17:53.689Z,96792.13
2017-08-08T02:22:40.330Z,96783.75
2017-08-08T02:27:27.032Z,96777.65
2017-08-08T02:32:13.965Z,96781.34
2017-08-08T02:37:00.588Z,96773.54
2017-08-08T02:41:47.249Z,96784.25
2017-08-08T02:46:34.050Z,96787.23
2017-08-08T02:51:20.735Z,96786.56
2017-08-08T02:56:07.378Z,96792.25
2017-08-08T03:00:54.125Z,96787.42
2017-08-08T03:05:41.485Z,96791.16
2017-08-08T03:10:28.095Z,96795.44
2017-08-08T03:15:14.845Z,96788.12
2017-08-08T03:20:01.593Z,96780.75
2017-08-08T03:24:48.257Z,96772.20
2017-08-08T03:29:35.689Z,96772.74
2017-08-08T03:34:23.190Z,96763.97
2017-08-08T03:39:10.129Z,96761.67
2017-08-08T03:43:56.740Z,96752.88
2017-08-08T03:48:43.388Z,96746.47
2017-08-08T03:53:30.803Z,96745.71
2017-08-08T03:58:17.424Z,96737.95
2017-08-08T04:03:04.145Z,96740.58
2017-08-08T04:07:50.757Z,96732.31
2017-08-08T04:12:37.787Z,96725.78
2017-08-08T04:17:24.510Z,96718.13
2017-08-08T04:22:11.314Z,96718.32
2017-08-08T04:26:57.948Z,96710.18
2017-08-08T04:31:44.778Z,96704.09
2017-08-08T04:36:31.427Z,96698.58
2017-08-08T04:41:18.817Z,96702.27
2017-08-08T04:46:05.481Z,96703.69
2017-08-08T04:50:52.096Z,96708.16
2017-08-08T04:55:38.810Z,96705.66
2017-08-08T05:00:25.649Z,96711.09
2017-08-08T05:05:12.305Z,96711.41
2017-08-08T05:09:58.923Z,96710.83
2017-08-08T05:14:45.614Z,96713.95
2017-08-08T05:19:32.978Z,96712.00
2017-08-08T05:24:19.746Z,96713.25
2017-08-08T05:29:06.449Z,96717.52
2017-08-08T05:33:53.108Z,96722.84
2017-08-08T05:38:39.748Z,96711.20
2017-08-08T05:43:27.117Z,96699.98
2017-08-08T05:48:13.839Z,96689.50
2017-08-08T05:53:00.806Z,96690.96
2017-08-08T05:57:47.515Z,96696.42
2017-08-08T06:02:34.366Z,96704.55
2017-08-08T06:07:21.373Z,96702.91
2017-08-08T06:12:08.216Z,96694.63
2017-08-08T06:16:55.002Z,96706.48
2017-08-08T06:21:41.706Z,96714.98
2017-08-08T06:26:28.349Z,96713.21
2017-08-08T06:31:14.992Z,96726.80
2017-08-08T06:36:01.705Z,96719.46
2017-08-08T06:40:48.504Z,96719.70
2017-08-08T06:45:35.144Z,96729.27
2017-08-08T06:50:21.794Z,96721.06
2017-08-08T06:55:09.207Z,96713.30
2017-08-08T06:59:56.158Z,96702.33
2017-08-08T07:04:42.736Z,96699.81
2017-08-08T07:09:29.368Z,96692.83
2017-08-08T07:14:15.994Z,96688.62
2017-08-08T07:19:02.716Z,96684.44
2017-08-08T07:23:49.388Z,96683.34
2017-08-08T07:28:36.077Z,96681.02
2017-08-08T07:33:22.697Z,96676.69
2017-08-08T07:38:09.309Z,96679.27
2017-08-08T07:42:56.019Z,96669.21
2017-08-08T07:47:42.843Z,96643.41
2017-08-08T07:52:29.575Z,96647.77
2017-08-08T07:57:16.238Z,96655.34
2017-08-08T08:02:03.117Z,96650.26
2017-08-08T08:06:49.727Z,96626.09
2017-08-08T08:11:36.411Z,96621.16
2017-08-08T08:16:23.071Z,96618.25
2017-08-08T08:21:09.711Z,96615.36
2017-08-08T08:25:56.332Z,96613.86
2017-08-08T08:30:43.750Z,96618.23
2017-08-08T08:35:30.780Z,96617.33
2017-08-08T08:40:17.406Z,96609.73
2017-08-08T08:45:04.037Z,96609.91
2017-08-08T08:49:50.659Z,96599.79
2017-08-08T08:54:37.291Z,96589.14
2017-08-08T08:59:24.658Z,96587.59
2017-08-08T09:04:11.304Z,96579.87
2017-08-08T09:08:57.907Z,96571.66
2017-08-08T09:13:44.967Z,96562.05
2017-08-08T09:18:31.578Z,96557.88
2017-08-08T09:23:19.231Z,96555.20
2017-08-08T09:28:05.918Z,96546.02
2017-08-08T09:32:52.545Z,96542.20
2017-08-08T09:37:39.194Z,96543.61
2017-08-08T09:42:26.128Z,96539.51
2017-08-08T09:47:12.942Z,96539.67
2017-08-08T09:51:59.612Z,96540.25
2017-08-08T09:56:46.320Z,96536.28
2017-08-08T10:01:33.725Z,96538.15
2017-08-08T10:06:20.354Z,96551.72
2017-08-08T10:11:07.003Z,96551.73
2017-08-08T10:15:54.373Z,96546.02
2017-08-08T10:20:40.981Z,96541.63
2017-08-08T10:25:27.642Z,96542.38
2017-08-08T10:30:14.258Z,96527.02
2017-08-08T10:35:00.873Z,96524.96
2017-08-08T10:39:47.536Z,96527.06
2017-08-08T10:44:35.057Z,96531.82
2017-08-08T10:49:21.692Z,96524.38
2017-08-08T10:54:09.081Z,96511.75
2017-08-08T10:58:56.131Z,96506.52
2017-08-08T11:03:42.960Z,96502.00
2017-08-08T11:08:30.261Z,96495.83
2017-08-08T11:13:17.006Z,96498.96
2017-08-08T11:18:03.694Z,96503.03
2017-08-08T11:22:50.780Z,96491.61
2017-08-08T11:27:37.417Z,96479.70
2017-08-08T11:32:24.780Z,96487.25
2017-08-08T11:37:11.466Z,96488.45
2017-08-08T11:41:58.117Z,96468.12
2017-08-08T11:46:44.768Z,96469.20
2017-08-08T11:51:31.406Z,96477.44
2017-08-08T11:56:18.048Z,96483.40
2017-08-08T12:01:04.750Z,96477.05
2017-08-08T12:05:51.413Z,96475.70
2017-08-08T12:10:38.792Z,96477.38
2017-08-08T12:15:25.524Z,96478.63
2017-08-08T12:20:12.142Z,96478.19
2017-08-08T12:24:58.758Z,96463.34
2017-08-08T12:29:45.418Z,96473.16
2017-08-08T12:34:32.916Z,96483.52
2017-08-08T12:39:19.587Z,96496.42
2017-08-08T12:44:06.978Z,96493.95
2017-08-08T12:48:53.663Z,96494.63
2017-08-08T12:53:40.328Z,96499.98
2017-08-08T12:58:26.936Z,96493.48
2017-08-08T13:03:13.567Z,96509.56
2017-08-08T13:08:00.180Z,96507.45
2017-08-08T13:12:46.823Z,96513.34
2017-08-08T13:17:33.743Z,96509.75
2017-08-08T13:22:20.341Z,96499.89
2017-08-08T13:27:06.945Z,96503.67
2017-08-08T13:31:53.575Z,96503.74
2017-08-08T13:36:40.226Z,96496.02
2017-08-08T13:41:26.867Z,96495.20
2017-08-08T13:46:13.532Z,96493.59
2017-08-08T13:51:00.470Z,96506.65
2017-08-08T13:55:47.093Z,96511.98
2017-08-08T14:00:33.937Z,96512.34
2017-08-08T14:05:20.562Z,96517.21
2017-08-08T14:10:07.199Z,96511.05
2017-08-08T14:14:53.787Z,96512.88
2017-08-08T14:19:40.753Z,96513.42
2017-08-08T14:24:27.410Z,96510.84
2017-08-08T14:29:14.075Z,96520.27
2017-08-08T14:34:00.700Z,96530.46
2017-08-08T14:38:47.338Z,96534.00
2017-08-08T14:43:34.706Z,96540.22
2017-08-08T14:48:21.350Z,96545.70
2017-08-08T14:53:08.034Z,96558.59
2017-08-08T14:57:54.796Z,96567.22
2017-08-08T15:02:42.808Z,96560.81
2017-08-08T15:07:29.525Z,96564.13
2017-08-08T15:12:16.266Z,96562.70
2017-08-08T15:17:02.976Z,96552.66
2017-08-08T15:21:49.665Z,96559.05
2017-08-08T15:26:36.684Z,96565.97
2017-08-08T15:31:23.318Z,96575.80
2017-08-08T15:36:10.917Z,96577.94
2017-08-08T15:40:57.609Z,96610.91
2017-08-08T15:45:44.315Z,96629.22
2017-08-08T15:50:31.067Z,96642.66
2017-08-08T15:55:18.601Z,96656.96
2017-08-08T16:00:05.700Z,96642.91
2017-08-08T16:04:53.025Z,96641.47
2017-08-08T16:09:39.688Z,96634.48
2017-08-08T16:14:26.340Z,96630.63
2017-08-08T16:19:12.969Z,96650.23
2017-08-08T16:23:59.661Z,96674.95
2017-08-08T16:28:46.342Z,96681.74
2017-08-08T16:33:34.064Z,96687.28
2017-08-08T16:38:20.665Z,96680.25
2017-08-08T16:43:07.324Z,96680.91
2017-08-08T16:47:53.966Z,96686.05
2017-08-08T16:52:40.631Z,96689.12
2017-08-08T16:57:27.375Z,96699.81
2017-08-08T17:02:14.028Z,96707.17
2017-08-08T17:07:00.754Z,96706.52
2017-08-08T17:11:47.750Z,96718.19
2017-08-08T17:16:34.355Z,96718.12
2017-08-08T17:21:21.105Z,96714.93
2017-08-08T17:26:08.534Z,96706.19
2017-08-08T17:30:55.217Z,96740.96
2017-08-08T17:35:41.947Z,96742.47
2017-08-08T17:40:28.624Z,96725.14
2017-08-08T17:45:16.432Z,96748.42
2017-08-08T17:50:03.202Z,96759.01
2017-08-08T17:54:50.023Z,96763.00
2017-08-08T17:59:36.663Z,96762.33
2017-08-08T18:04:23.379Z,96775.86
2017-08-08T18:09:10.034Z,96765.93
2017-08-08T18:13:56.753Z,96789.63
2017-08-08T18:18:43.404Z,96790.79
2017-08-08T18:23:30.427Z,96786.49
2017-08-08T18:28:17.069Z,96810.37
2017-08-08T18:33:04.490Z,96833.27
2017-08-08T18:37:51.172Z,96842.79
2017-08-08T18:42:37.862Z,96853.78
2017-08-08T18:47:24.596Z,96875.47
2017-08-08T18:52:11.341Z,96877.67
2017-08-08T18:56:58.543Z,96875.55
2017-08-08T19:01:45.651Z,96877.83
2017-08-08T19:06:32.361Z,96891.30
2017-08-08T19:11:19.149Z,96897.70
2017-08-08T19:16:05.900Z,96905.09
2017-08-08T19:20:52.663Z,96911.55
2017-08-08T19:25:39.370Z,96946.89
2017-08-08T19:30:26.109Z,96953.60
2017-08-08T19:35:12.891Z,96950.60
2017-08-08T19:39:59.618Z,96952.55
2017-08-08T19:44:46.377Z,96956.14
2017-08-08T19:49:33.098Z,96976.11
2017-08-08T19:54:19.808Z,96969.85
2017-08-08T19:59:06.563Z,96946.17
2017-08-08T20:03:53.539Z,96954.76
2017-08-08T20:08:40.982Z,96958.82
2017-08-08T20:13:28.401Z,97007.55
2017-08-08T20:18:15.113Z,97053.23
2017-08-08T20:23:01.792Z,97103.34
2017-08-08T20:27:48.545Z,97168.56
2017-08-08T20:32:35.232Z,97182.30
2017-08-08T20:37:22.236Z,97210.64
2017-08-08T20:42:09.015Z,97273.44
2017-08-08T20:46:56.058Z,97267.05
2017-08-08T20:51:42.718Z,97257.14
2017-08-08T20:56:30.152Z,97208.66
2017-08-08T21:01:17.556Z,97183.55
2017-08-08T21:06:04.623Z,97159.30
2017-08-08T21:10:51.334Z,97115.28
2017-08-08T21:15:38.020Z,97099.00
2017-08-08T21:20:24.862Z,97126.07
2017-08-08T21:25:11.546Z,97174.16
2017-08-08T21:29:58.251Z,97203.75
2017-08-08T21:34:44.918Z,97246.83
2017-08-08T21:39:31.871Z,97270.94
2017-08-08T21:44:18.526Z,97243.36
2017-08-08T21:49:05.141Z,97236.16
2017-08-08T21:53:51.773Z,97217.64
2017-08-08T21:58:38.422Z,97209.03
2017-08-08T22:03:25.092Z,97201.25
2017-08-08T22:08:12.444Z,97179.00
2017-08-08T22:12:59.422Z,97183.31
2017-08-08T22:17:46.045Z,97176.11
2017-08-08T22:22:32.790Z,97194.06
2017-08-08T22:27:19.460Z,97194.50
2017-08-08T22:32:06.098Z,97168.78
2017-08-08T22:36:52.709Z,97177.31
2017-08-08T22:41:39.757Z,97201.84
2017-08-08T22:46:26.442Z,97168.64
2017-08-08T22:51:13.112Z,97133.17
2017-08-08T22:55:59.808Z,97115.62
2017-08-08T23:00:46.466Z,97100.70
2017-08-08T23:05:33.933Z,97109.95
2017-08-08T23:10:20.604Z,97094.42
2017-08-08T23:15:07.206Z,97081.05
2017-08-08T23:19:53.863Z,97072.73
2017-08-08T23:24:40.530Z,97072.67
2017-08-08T23:29:27.407Z,97075.29
2017-08-08T23:34:14.447Z,97098.70
2017-08-08T23:39:01.911Z,97145.69
2017-08-08T23:43:48.519Z,97130.25
2017-08-08T23:48:36.161Z,97091.64
2017-08-08T23:53:23.497Z,97043.09
2017-08-08T23:58:10.986Z,97079.94
